Time;durP1;ratioP1;P1;durP2;ratioP2;P2;SDS_P1;SDS_P2;PMS_P1;PMS_P2;Temp;Humidity;BMP_temperature;BMP_pressure;BME280_temperature;BME280_humidity;BME280_pressure;Samples;Min_cycle;Max_cycle;Signal;HPM_P1;HPM_P2
2022/12/04 00:01:19;;;;;;;32.20;14.80;;;0.60;99.90;;;;;;5108610;27;20039;-81
2022/12/04 00:03:45;;;;;;;26.13;13.77;;;0.60;99.90;;;;;;5094683;28;20046;-82
2022/12/04 00:06:17;;;;;;;34.00;15.30;;;0.60;99.90;;;;;;5106568;27;20039;-83
2022/12/04 00:08:44;;;;;;;28.02;13.68;;;0.60;99.90;;;;;;5101894;28;20040;-83
2022/12/04 00:11:11;;;;;;;29.13;14.03;;;0.60;99.90;;;;;;5098453;27;20044;-79
2022/12/04 00:13:38;;;;;;;27.00;13.97;;;0.60;99.90;;;;;;5117334;27;20039;-79
2022/12/04 00:16:09;;;;;;;28.50;13.67;;;0.60;99.90;;;;;;5097622;28;20039;-82
2022/12/04 00:18:36;;;;;;;28.00;14.60;;;0.60;99.90;;;;;;5099302;27;20035;-81
2022/12/04 00:21:04;;;;;;;31.37;14.53;;;0.60;99.90;;;;;;5090947;28;20058;-81
2022/12/04 00:23:31;;;;;;;30.37;14.20;;;0.60;99.90;;;;;;5098124;28;20036;-82
2022/12/04 00:26:05;;;;;;;29.43;15.40;;;0.60;99.90;;;;;;5080909;28;20501;-81
2022/12/04 00:28:31;;;;;;;28.43;13.90;;;0.60;99.90;;;;;;5098245;28;20031;-83
2022/12/04 00:30:56;;;;;;;28.37;14.10;;;0.60;99.90;;;;;;5090399;27;20047;-80
2022/12/04 00:33:22;;;;;;;30.20;14.57;;;0.50;99.90;;;;;;5116044;27;20039;-83
2022/12/04 00:35:55;;;;;;;33.03;14.33;;;0.50;99.90;;;;;;5083885;28;20047;-81
2022/12/04 00:38:20;;;;;;;28.53;14.20;;;0.50;99.90;;;;;;5116331;27;20071;-82
2022/12/04 00:40:50;;;;;;;26.93;14.30;;;0.50;99.90;;;;;;5098626;28;20104;-81
2022/12/04 00:43:15;;;;;;;30.47;14.70;;;0.50;99.90;;;;;;5081198;28;20031;-82
2022/12/04 00:45:41;;;;;;;31.43;16.07;;;0.50;99.90;;;;;;5104977;28;20465;-81
2022/12/04 00:48:06;;;;;;;29.30;14.50;;;0.50;99.90;;;;;;5115178;28;20039;-80
2022/12/04 00:50:32;;;;;;;28.43;14.40;;;0.50;99.90;;;;;;5102686;28;20104;-81
2022/12/04 00:52:57;;;;;;;31.30;14.20;;;0.50;99.90;;;;;;5114404;28;20051;-82
2022/12/04 00:55:23;;;;;;;27.03;14.60;;;0.50;99.90;;;;;;5109221;28;20039;-81
2022/12/04 00:57:48;;;;;;;32.37;15.57;;;0.50;99.90;;;;;;5106084;28;20051;-80
2022/12/04 01:00:14;;;;;;;29.40;15.20;;;0.50;99.90;;;;;;5105137;28;20394;-81
2022/12/04 01:02:40;;;;;;;30.50;14.73;;;0.50;99.90;;;;;;5117383;28;20035;-80
2022/12/04 01:05:06;;;;;;;29.47;14.97;;;0.50;99.90;;;;;;5108427;28;20039;-79
2022/12/04 01:07:32;;;;;;;32.30;15.93;;;0.50;99.90;;;;;;5111461;28;20067;-80
2022/12/04 01:09:57;;;;;;;29.27;15.07;;;0.50;99.90;;;;;;5109111;28;20496;-81
2022/12/04 01:12:23;;;;;;;30.57;15.63;;;0.40;99.90;;;;;;5112300;28;20437;-82
2022/12/04 01:14:48;;;;;;;29.93;14.80;;;0.40;99.90;;;;;;5106258;28;20031;-81
2022/12/04 01:17:14;;;;;;;33.43;17.00;;;0.40;99.90;;;;;;5109655;28;20096;-81
2022/12/04 01:19:40;;;;;;;33.07;15.63;;;0.40;99.90;;;;;;5097276;28;20039;-82
2022/12/04 01:22:05;;;;;;;33.70;16.57;;;0.40;99.90;;;;;;5105504;28;20066;-81
2022/12/04 01:24:31;;;;;;;29.63;14.43;;;0.40;99.90;;;;;;5113391;28;20027;-80
2022/12/04 01:26:56;;;;;;;31.60;15.20;;;0.30;99.90;;;;;;5113613;28;20039;-81
2022/12/04 01:29:22;;;;;;;32.43;15.67;;;0.30;99.90;;;;;;5098661;28;20119;-81
2022/12/04 01:31:47;;;;;;;31.00;15.43;;;0.30;99.90;;;;;;5109818;28;20046;-81
2022/12/04 01:34:13;;;;;;;33.00;15.87;;;0.30;99.90;;;;;;5109021;28;20035;-81
2022/12/04 01:36:38;;;;;;;34.60;16.57;;;0.30;99.90;;;;;;5105408;28;20047;-81
2022/12/04 01:39:04;;;;;;;35.93;17.47;;;0.30;99.90;;;;;;5113327;28;20059;-83
2022/12/04 01:41:31;;;;;;;35.97;16.87;;;0.20;99.90;;;;;;5107768;27;20400;-83
2022/12/04 01:44:09;;;;;;;35.87;16.50;;;0.20;99.90;;;;;;5116215;28;20035;-81
2022/12/04 01:46:35;;;;;;;36.13;17.27;;;0.20;99.90;;;;;;5101172;28;20031;-82
2022/12/04 01:49:02;;;;;;;36.67;17.67;;;0.20;99.90;;;;;;5110290;27;20038;-81
2022/12/04 01:51:38;;;;;;;34.73;17.17;;;0.20;99.90;;;;;;5113311;27;20042;-81
2022/12/04 01:54:08;;;;;;;38.27;18.00;;;0.20;99.90;;;;;;5110697;27;20067;-81
2022/12/04 01:56:52;;;;;;;38.70;17.80;;;0.20;99.90;;;;;;5111212;27;20042;-82
2022/12/04 01:59:25;;;;;;;35.58;17.00;;;0.10;99.90;;;;;;5113800;27;20091;-81
2022/12/04 02:02:10;;;;;;;34.28;16.67;;;0.10;99.90;;;;;;5112284;27;20609;-82
2022/12/04 02:04:39;;;;;;;34.20;17.03;;;0.10;99.90;;;;;;5129755;27;20047;-80
2022/12/04 02:07:04;;;;;;;37.00;18.80;;;0.10;99.90;;;;;;5113200;27;20484;-79
2022/12/04 02:09:31;;;;;;;39.00;17.60;;;0.10;99.90;;;;;;5114250;28;20040;-82
2022/12/04 02:12:15;;;;;;;35.13;18.00;;;0.10;99.90;;;;;;5114657;27;20141;-81
2022/12/04 02:14:45;;;;;;;;;;;0.10;99.90;;;;;;5102297;27;20039;-80
2022/12/04 02:17:15;;;;;;;34.83;16.90;;;0.10;99.90;;;;;;5113447;28;20434;-81
2022/12/04 02:20:13;;;;;;;38.60;18.40;;;0.10;99.90;;;;;;5099173;28;20046;-83
2022/12/04 02:23:03;;;;;;;34.03;16.60;;;0.10;99.90;;;;;;5084031;28;20035;-80
2022/12/04 02:25:34;;;;;;;35.90;16.80;;;0.10;99.90;;;;;;5118310;27;20039;-83
2022/12/04 02:28:24;;;;;;;40.63;18.93;;;0.10;99.90;;;;;;5115317;27;20047;-81
2022/12/04 02:30:54;;;;;;;38.53;18.03;;;0.10;99.90;;;;;;5131358;27;20031;-80
2022/12/04 02:33:33;;;;;;;38.77;17.43;;;0.10;99.90;;;;;;5116460;27;20092;-80
2022/12/04 02:36:11;;;;;;;40.17;19.50;;;0.10;99.90;;;;;;5108614;28;20042;-82
2022/12/04 02:38:39;;;;;;;42.17;19.47;;;0.10;99.90;;;;;;5109218;28;20100;-81
2022/12/04 02:41:12;;;;;;;40.27;18.50;;;0.10;99.90;;;;;;5116254;27;20039;-81
2022/12/04 02:43:43;;;;;;;40.65;19.23;;;0.10;99.90;;;;;;5099774;27;20039;-80
2022/12/04 02:46:13;;;;;;;40.23;19.17;;;0.10;99.90;;;;;;5109382;27;20106;-81
2022/12/04 02:48:41;;;;;;;45.40;20.43;;;0.10;99.90;;;;;;5112237;27;20514;-81
2022/12/04 02:51:09;;;;;;;38.07;18.30;;;0.10;99.90;;;;;;5110676;28;20445;-81
2022/12/04 02:53:38;;;;;;;39.70;19.27;;;0.00;99.90;;;;;;5107280;28;20107;-81
2022/12/04 02:56:09;;;;;;;39.87;19.23;;;0.00;99.90;;;;;;5106807;28;20071;-81
2022/12/04 02:58:49;;;;;;;44.40;20.83;;;0.10;99.90;;;;;;5111150;27;20077;-81
2022/12/04 03:01:20;;;;;;;44.10;20.00;;;0.10;99.90;;;;;;5110905;27;20059;-80
2022/12/04 03:04:14;;;;;;;42.23;19.33;;;0.10;99.90;;;;;;5116591;27;20099;-82
2022/12/04 03:06:44;;;;;;;43.33;21.52;;;0.00;99.90;;;;;;5098935;28;20043;-81
2022/12/04 03:09:36;;;;;;;40.40;19.23;;;0.00;99.90;;;;;;5102411;27;20035;-81
2022/12/04 03:12:12;;;;;;;40.90;19.30;;;0.00;99.90;;;;;;5112454;27;20079;-81
2022/12/04 03:14:42;;;;;;;43.50;20.73;;;0.00;99.90;;;;;;5112396;27;20067;-81
2022/12/04 03:17:18;;;;;;;44.50;21.07;;;0.00;99.90;;;;;;5118728;27;20038;-81
2022/12/04 03:19:52;;;;;;;45.03;21.40;;;0.00;99.90;;;;;;5099656;28;20042;-81
2022/12/04 03:22:21;;;;;;;44.80;21.00;;;0.00;99.90;;;;;;5108852;27;20155;-81
2022/12/04 03:24:52;;;;;;;44.73;20.70;;;0.00;99.90;;;;;;5114027;28;20048;-80
2022/12/04 03:27:38;;;;;;;45.23;21.60;;;0.00;99.90;;;;;;5101067;27;20439;-81
2022/12/04 03:30:10;;;;;;;49.00;22.00;;;0.00;99.90;;;;;;5108803;27;20055;-81
2022/12/04 03:32:43;;;;;;;44.07;21.30;;;0.00;99.90;;;;;;5111133;27;20080;-81
2022/12/04 03:35:39;;;;;;;44.80;21.23;;;0.00;99.90;;;;;;5112754;27;20050;-81
2022/12/04 03:38:19;;;;;;;49.43;21.77;;;0.00;99.90;;;;;;5099173;27;20043;-82
2022/12/04 03:41:15;;;;;;;44.00;21.23;;;0.00;99.90;;;;;;5102871;28;20163;-82
2022/12/04 03:43:51;;;;;;;44.10;20.83;;;0.00;99.90;;;;;;5108659;27;20039;-81
2022/12/04 03:46:26;;;;;;;46.47;21.27;;;0.00;99.90;;;;;;5105035;27;20042;-80
2022/12/04 03:48:55;;;;;;;50.60;23.70;;;0.00;99.90;;;;;;5108886;27;20031;-81
2022/12/04 03:51:22;;;;;;;46.73;22.00;;;0.00;99.90;;;;;;5109677;27;20059;-81
2022/12/04 03:53:59;;;;;;;47.43;21.77;;;-0.10;99.90;;;;;;5115725;27;20039;-82
2022/12/04 03:56:40;;;;;;;46.07;21.87;;;-0.10;99.90;;;;;;5098156;28;20088;-82
2022/12/04 03:59:11;;;;;;;49.10;22.40;;;0.00;99.90;;;;;;5097959;28;20067;-83
2022/12/04 04:01:45;;;;;;;44.77;21.57;;;0.00;99.90;;;;;;5100850;27;20395;-81
2022/12/04 04:04:20;;;;;;;46.73;22.07;;;-0.10;99.90;;;;;;5114972;27;20023;-81
2022/12/04 04:06:52;;;;;;;46.93;22.40;;;-0.10;99.90;;;;;;5110551;27;20051;-81
2022/12/04 04:09:22;;;;;;;49.03;22.33;;;-0.10;99.90;;;;;;5116644;27;20053;-80
2022/12/04 04:12:05;;;;;;;49.93;22.47;;;-0.10;99.90;;;;;;5100838;28;20050;-80
2022/12/04 04:25:53;;;;;;;47.43;23.53;;;-0.10;99.90;;;;;;5104021;28;20505;-81
2022/12/04 04:28:35;;;;;;;50.03;23.27;;;-0.10;99.90;;;;;;5097501;28;20032;-81
2022/12/04 04:31:05;;;;;;;44.33;22.30;;;-0.10;99.90;;;;;;5106777;28;20396;-82
2022/12/04 04:33:37;;;;;;;48.67;23.50;;;-0.10;99.90;;;;;;5091598;27;20034;-82
2022/12/04 04:36:25;;;;;;;50.17;23.60;;;-0.10;99.90;;;;;;5117701;27;20039;-81
2022/12/04 04:39:09;;;;;;;49.77;22.57;;;-0.20;99.90;;;;;;5109483;28;20044;-80
2022/12/04 04:41:55;;;;;;;50.88;23.38;;;-0.10;99.90;;;;;;5098032;28;20036;-81
2022/12/04 04:44:31;;;;;;;48.10;22.17;;;-0.20;99.90;;;;;;5111649;28;20046;-82
2022/12/04 04:47:02;;;;;;;45.53;21.20;;;-0.10;99.90;;;;;;5107603;28;20501;-82
2022/12/04 04:49:32;;;;;;;51.87;22.97;;;-0.20;99.90;;;;;;5091722;28;20042;-82
2022/12/04 04:51:59;;;;;;;47.97;22.77;;;-0.20;99.90;;;;;;5109875;28;20035;-82
2022/12/04 04:54:28;;;;;;;53.63;25.07;;;-0.20;99.90;;;;;;5109695;28;20046;-81
2022/12/04 04:56:54;;;;;;;50.37;23.00;;;-0.20;99.90;;;;;;5102227;28;20043;-83
2022/12/04 04:59:19;;;;;;;47.30;21.53;;;-0.20;99.90;;;;;;5098406;28;20044;-80
2022/12/04 05:01:46;;;;;;;47.40;22.80;;;-0.20;99.90;;;;;;5104282;28;20126;-81
2022/12/04 05:04:12;;;;;;;50.70;23.47;;;-0.20;99.90;;;;;;5108408;28;20035;-80
2022/12/04 05:06:37;;;;;;;49.30;22.77;;;-0.20;99.90;;;;;;5110189;28;20046;-81
2022/12/04 05:09:03;;;;;;;48.23;22.97;;;-0.20;99.90;;;;;;5102336;28;20032;-81
2022/12/04 05:11:30;;;;;;;48.97;23.90;;;-0.20;99.90;;;;;;5096682;28;20771;-82
2022/12/04 05:13:55;;;;;;;49.43;23.30;;;-0.20;99.90;;;;;;5113173;28;20031;-80
2022/12/04 05:16:21;;;;;;;51.60;23.43;;;-0.20;99.90;;;;;;5113791;27;20050;-84
2022/12/04 05:21:32;;;;;;;50.57;24.73;;;-0.20;99.90;;;;;;5112922;27;20122;-83
2022/12/04 05:23:58;;;;;;;47.63;23.93;;;-0.20;99.90;;;;;;5107911;27;20042;-80
2022/12/04 05:26:24;;;;;;;50.53;24.57;;;-0.20;99.90;;;;;;5105448;28;20425;-81
2022/12/04 05:28:49;;;;;;;51.07;22.83;;;-0.20;99.90;;;;;;5117699;27;20039;-82
2022/12/04 05:31:15;;;;;;;47.70;22.80;;;-0.20;99.90;;;;;;5105375;27;20086;-82
2022/12/04 05:33:40;;;;;;;52.83;23.20;;;-0.20;99.90;;;;;;5117690;27;20050;-80
2022/12/04 05:36:08;;;;;;;52.93;23.70;;;-0.20;99.90;;;;;;5115026;27;20492;-80
2022/12/04 05:38:35;;;;;;;51.23;24.80;;;0.10;99.90;;;;;;5117745;27;20511;-80
2022/12/04 05:41:02;;;;;;;50.67;23.47;;;-0.20;99.90;;;;;;5119191;27;20445;-83
2022/12/04 05:43:28;;;;;;;50.00;24.30;;;-0.20;99.90;;;;;;5093464;27;20055;-81
2022/12/04 05:45:54;;;;;;;52.10;23.70;;;-0.20;99.90;;;;;;5115299;27;20060;-81
2022/12/04 05:48:19;;;;;;;50.57;23.27;;;-0.20;99.90;;;;;;5104986;27;20036;-81
2022/12/04 05:50:45;;;;;;;49.90;23.23;;;-0.20;99.90;;;;;;5114343;27;20122;-81
2022/12/04 05:53:10;;;;;;;52.03;23.47;;;-0.20;99.90;;;;;;5112373;27;20196;-81
2022/12/04 05:55:36;;;;;;;50.47;23.77;;;-0.20;99.90;;;;;;5093076;27;20047;-82
2022/12/04 05:58:02;;;;;;;50.00;23.40;;;-0.20;99.90;;;;;;5111761;28;20035;-81
2022/12/04 06:00:28;;;;;;;50.60;22.30;;;-0.20;99.90;;;;;;5118733;27;20043;-81
2022/12/04 06:02:53;;;;;;;48.03;22.70;;;-0.10;99.90;;;;;;5104517;27;20090;-81
2022/12/04 06:05:19;;;;;;;47.67;22.23;;;-0.10;99.90;;;;;;5119696;27;20508;-80
2022/12/04 06:07:44;;;;;;;50.87;23.57;;;-0.10;99.90;;;;;;5105740;28;20126;-80
2022/12/04 06:10:10;;;;;;;49.97;23.83;;;-0.10;99.90;;;;;;5110364;28;20039;-84
2022/12/04 06:12:36;;;;;;;46.23;22.57;;;-0.10;99.90;;;;;;5120845;27;20039;-82
2022/12/04 06:15:01;;;;;;;46.33;22.27;;;-0.10;99.90;;;;;;5110279;28;20051;-82
2022/12/04 06:17:27;;;;;;;50.43;22.90;;;-0.10;99.90;;;;;;5107403;27;20118;-80
2022/12/04 06:19:54;;;;;;;52.57;24.73;;;-0.10;99.90;;;;;;5109971;28;20450;-80
2022/12/04 06:22:19;;;;;;;52.03;24.17;;;-0.10;99.90;;;;;;5104998;27;20066;-82
2022/12/04 06:24:45;;;;;;;51.17;22.93;;;-0.10;99.90;;;;;;5107529;28;20035;-82
2022/12/04 06:27:10;;;;;;;46.07;22.77;;;-0.10;99.90;;;;;;5112572;27;20035;-82
2022/12/04 06:29:36;;;;;;;47.90;23.43;;;-0.10;99.90;;;;;;5112275;27;20045;-82
2022/12/04 06:32:02;;;;;;;48.60;22.73;;;-0.10;99.90;;;;;;5100118;28;20040;-80
2022/12/04 06:34:27;;;;;;;49.40;22.93;;;-0.10;99.90;;;;;;5100823;28;20074;-82
2022/12/04 06:36:53;;;;;;;49.57;23.77;;;-0.10;99.90;;;;;;5107354;27;20035;-81
2022/12/04 06:39:18;;;;;;;46.67;23.13;;;-0.10;99.90;;;;;;5112370;27;20043;-83
2022/12/04 06:41:44;;;;;;;45.60;22.07;;;0.00;99.90;;;;;;5111304;27;20500;-82
2022/12/04 06:44:09;;;;;;;48.13;22.93;;;0.00;99.90;;;;;;5113462;27;20036;-83
2022/12/04 06:46:35;;;;;;;50.23;23.47;;;0.00;99.90;;;;;;5111872;27;20513;-80
2022/12/04 06:49:01;;;;;;;50.67;23.40;;;0.00;99.90;;;;;;5118732;27;20080;-81
2022/12/04 06:51:30;;;;;;;52.33;23.70;;;0.00;99.90;;;;;;5120169;27;20038;-80
2022/12/04 06:53:56;;;;;;;54.17;24.83;;;0.00;99.90;;;;;;5101105;28;20059;-81
2022/12/04 06:56:27;;;;;;;52.60;23.80;;;0.00;99.90;;;;;;5114320;27;20049;-81
2022/12/04 06:58:55;;;;;;;55.17;24.43;;;0.00;99.90;;;;;;5107334;28;20496;-82
2022/12/04 07:01:24;;;;;;;48.97;22.60;;;0.00;99.90;;;;;;5110149;28;20050;-79
2022/12/04 07:03:50;;;;;;;51.77;24.20;;;0.00;99.90;;;;;;5099609;28;20048;-81
2022/12/04 07:06:21;;;;;;;52.57;24.37;;;0.00;99.90;;;;;;5114010;27;20042;-80
2022/12/04 07:08:50;;;;;;;49.57;23.73;;;-0.10;99.90;;;;;;5114414;27;20047;-79
2022/12/04 07:11:16;;;;;;;49.67;23.17;;;0.00;99.90;;;;;;5096973;27;20558;-80
2022/12/04 07:13:42;;;;;;;47.97;22.57;;;0.00;99.90;;;;;;5115514;28;20054;-83
2022/12/04 07:16:11;;;;;;;53.63;23.60;;;0.00;99.90;;;;;;5113889;27;20043;-80
2022/12/04 07:18:37;;;;;;;54.70;23.20;;;0.00;99.90;;;;;;5096945;28;20532;-80
2022/12/04 07:21:08;;;;;;;49.60;22.30;;;0.00;99.90;;;;;;5081717;28;20051;-81
2022/12/04 07:23:34;;;;;;;56.77;24.30;;;-0.10;99.90;;;;;;5081695;27;20114;-79
2022/12/04 07:26:09;;;;;;;52.00;23.93;;;-0.10;99.90;;;;;;5108584;27;20058;-81
2022/12/04 07:28:35;;;;;;;50.23;23.80;;;0.00;99.90;;;;;;5098127;28;20038;-82
2022/12/04 07:31:10;;;;;;;52.23;24.00;;;0.00;99.90;;;;;;5098910;27;20035;-80
2022/12/04 07:33:36;;;;;;;50.17;23.30;;;0.00;99.90;;;;;;5110875;27;20126;-82
2022/12/04 07:36:04;;;;;;;51.93;23.50;;;0.00;99.90;;;;;;5118334;27;20093;-82
2022/12/04 07:38:31;;;;;;;56.27;23.67;;;0.00;99.90;;;;;;5100741;27;20088;-81
2022/12/04 07:40:58;;;;;;;52.83;23.40;;;0.00;99.90;;;;;;5115363;27;20027;-80
2022/12/04 07:43:24;;;;;;;51.57;23.90;;;0.00;99.90;;;;;;5118344;27;20035;-81
2022/12/04 07:45:50;;;;;;;52.83;22.97;;;0.00;99.90;;;;;;5094926;28;20070;-81
2022/12/04 07:48:15;;;;;;;52.43;23.30;;;0.00;99.90;;;;;;5118649;27;20039;-83
2022/12/04 07:50:41;;;;;;;55.13;24.37;;;0.00;99.90;;;;;;5117878;27;20058;-81
2022/12/04 07:53:06;;;;;;;51.13;25.27;;;0.00;99.90;;;;;;5101278;27;20611;-80
2022/12/04 07:55:32;;;;;;;50.73;24.40;;;0.00;99.90;;;;;;5101459;28;20105;-81
2022/12/04 07:57:57;;;;;;;52.83;24.13;;;0.00;99.90;;;;;;5080515;28;20726;-81
2022/12/04 08:00:23;;;;;;;51.43;23.33;;;0.00;99.90;;;;;;5093928;27;20039;-81
2022/12/04 08:02:49;;;;;;;49.60;23.83;;;0.00;99.90;;;;;;5113158;27;20104;-80
2022/12/04 08:05:15;;;;;;;51.83;23.67;;;0.10;99.90;;;;;;5092813;28;20036;-81
2022/12/04 08:07:41;;;;;;;54.73;24.13;;;0.10;99.90;;;;;;5111702;27;20446;-83
2022/12/04 08:10:07;;;;;;;55.67;23.37;;;0.10;99.90;;;;;;5114158;27;20035;-81
2022/12/04 08:12:33;;;;;;;49.73;23.57;;;0.10;99.90;;;;;;5117315;27;20039;-81
2022/12/04 08:14:58;;;;;;;52.53;25.13;;;0.10;99.90;;;;;;5098833;28;20135;-82
2022/12/04 08:17:24;;;;;;;51.47;23.53;;;0.10;99.90;;;;;;5109119;27;20043;-81
2022/12/04 08:19:50;;;;;;;52.47;24.17;;;0.10;99.90;;;;;;5114054;27;20035;-81
2022/12/04 08:22:15;;;;;;;51.03;24.67;;;0.20;99.90;;;;;;5117644;27;20519;-82
2022/12/04 08:24:41;;;;;;;50.07;23.47;;;0.20;99.90;;;;;;5105268;28;20104;-82
2022/12/04 08:27:07;;;;;;;52.03;24.23;;;0.20;99.90;;;;;;5107160;27;20039;-82
2022/12/04 08:29:32;;;;;;;53.10;23.73;;;0.20;99.90;;;;;;5112663;27;20434;-81
2022/12/04 08:31:58;;;;;;;51.43;22.57;;;0.20;99.90;;;;;;5095479;27;20039;-81
2022/12/04 08:34:23;;;;;;;47.73;22.50;;;0.20;99.90;;;;;;5107924;28;20095;-82
2022/12/04 08:36:49;;;;;;;45.63;22.63;;;0.20;99.90;;;;;;5089655;27;20074;-81
2022/12/04 08:39:14;;;;;;;51.20;23.80;;;0.30;99.90;;;;;;5099666;28;20079;-81
2022/12/04 08:41:40;;;;;;;52.27;23.63;;;0.30;99.90;;;;;;5078700;28;20108;-81
2022/12/04 08:44:06;;;;;;;53.33;24.50;;;0.30;99.90;;;;;;5097004;28;20082;-80
2022/12/04 08:46:32;;;;;;;44.13;22.20;;;0.30;99.90;;;;;;5109993;28;20027;-81
2022/12/04 08:48:58;;;;;;;49.90;23.30;;;0.40;99.90;;;;;;5112922;28;20058;-82
2022/12/04 08:51:26;;;;;;;47.87;23.07;;;0.40;99.90;;;;;;5115410;27;20369;-82
2022/12/04 08:54:01;;;;;;;49.13;23.47;;;0.40;99.90;;;;;;5111812;27;20042;-81
2022/12/04 08:56:28;;;;;;;47.47;21.93;;;0.40;99.90;;;;;;5115261;27;20039;-82
2022/12/04 08:58:55;;;;;;;53.10;23.17;;;0.40;99.90;;;;;;5102054;27;20047;-82
2022/12/04 09:01:21;;;;;;;48.40;23.63;;;0.50;99.90;;;;;;5130293;27;20043;-82
2022/12/04 09:03:46;;;;;;;50.47;22.03;;;0.50;99.90;;;;;;5117051;28;20039;-81
2022/12/04 09:06:13;;;;;;;46.23;22.20;;;0.50;99.90;;;;;;5101500;28;20032;-83
2022/12/04 09:08:40;;;;;;;45.03;22.00;;;0.50;99.90;;;;;;5084093;28;20123;-80
2022/12/04 09:11:11;;;;;;;50.47;22.83;;;0.50;99.90;;;;;;5100777;28;20051;-82
2022/12/04 09:13:39;;;;;;;49.20;22.90;;;0.50;99.90;;;;;;5083749;28;20213;-82
2022/12/04 09:16:07;;;;;;;49.30;23.53;;;0.60;99.90;;;;;;5100211;28;20511;-82
2022/12/04 09:18:33;;;;;;;48.83;23.60;;;0.60;99.90;;;;;;5100347;28;20065;-80
2022/12/04 09:21:02;;;;;;;48.47;23.13;;;0.70;99.90;;;;;;5101248;28;20055;-83
2022/12/04 09:23:28;;;;;;;47.17;22.60;;;0.60;99.90;;;;;;5082875;28;20050;-82
2022/12/04 09:25:53;;;;;;;46.27;22.20;;;0.70;99.90;;;;;;5083295;28;20031;-81
2022/12/04 09:28:19;;;;;;;45.40;22.07;;;0.70;99.90;;;;;;5100932;28;20073;-83
2022/12/04 09:30:45;;;;;;;44.63;22.87;;;0.70;99.90;;;;;;5084082;28;20181;-83
2022/12/04 09:33:10;;;;;;;47.27;22.37;;;0.70;99.90;;;;;;5083668;28;20067;-82
2022/12/04 09:35:37;;;;;;;45.93;21.77;;;0.70;99.90;;;;;;5100892;28;20105;-80
2022/12/04 09:38:03;;;;;;;43.37;22.07;;;0.80;99.90;;;;;;5099719;28;20126;-81
2022/12/04 09:40:39;;;;;;;45.93;21.97;;;0.80;99.90;;;;;;5100186;28;20067;-83
2022/12/04 09:43:13;;;;;;;43.40;22.40;;;0.80;99.90;;;;;;5100297;28;20058;-82
2022/12/04 09:45:46;;;;;;;40.55;20.15;;;0.90;99.90;;;;;;5099786;28;20036;-81
2022/12/04 09:48:13;;;;;;;44.00;21.15;;;0.90;99.90;;;;;;5100251;28;20366;-82
2022/12/04 09:50:42;;;;;;;40.63;21.17;;;0.90;99.90;;;;;;5082745;28;20082;-82
2022/12/04 09:53:14;;;;;;;46.13;21.60;;;1.00;99.90;;;;;;5099807;28;20035;-81
2022/12/04 09:55:59;;;;;;;40.50;20.37;;;1.00;99.90;;;;;;5100414;28;20458;-81
2022/12/04 09:58:48;;;;;;;40.83;20.43;;;1.00;99.90;;;;;;5101208;27;20055;-82
2022/12/04 10:01:22;;;;;;;42.60;20.17;;;1.00;99.90;;;;;;5119365;27;20044;-83
2022/12/04 10:03:48;;;;;;;37.77;19.13;;;1.10;99.90;;;;;;5109355;28;20039;-82
2022/12/04 10:06:23;;;;;;;40.10;20.60;;;1.10;99.90;;;;;;5099543;28;20040;-83
2022/12/04 10:09:02;;;;;;;39.10;19.13;;;1.10;99.90;;;;;;5082338;28;20048;-83
2022/12/04 10:11:58;;;;;;;40.07;19.83;;;1.20;99.90;;;;;;5104440;27;20035;-82
2022/12/04 10:15:00;;;;;;;37.80;19.97;;;1.20;99.90;;;;;;5107737;27;20466;-82
2022/12/04 10:17:52;;;;;;;37.37;18.50;;;1.30;99.90;;;;;;5114049;27;20516;-80
2022/12/04 10:20:21;;;;;;;40.50;19.47;;;1.30;99.90;;;;;;5112790;27;20465;-81
2022/12/04 10:23:05;;;;;;;36.80;18.27;;;1.40;99.90;;;;;;5093206;27;20035;-83
2022/12/04 10:25:35;;;;;;;35.83;18.77;;;1.40;99.90;;;;;;5081985;28;20036;-83
2022/12/04 10:28:23;;;;;;;38.33;18.90;;;1.40;99.90;;;;;;5104588;27;20031;-82
2022/12/04 10:30:52;;;;;;;36.77;18.40;;;1.50;99.90;;;;;;5110648;27;20043;-81
2022/12/04 10:34:00;;;;;;;37.17;18.27;;;1.50;99.90;;;;;;5110829;27;20496;-82
2022/12/04 10:36:31;;;;;;;35.67;17.97;;;1.50;99.90;;;;;;5088090;27;20054;-80
2022/12/04 10:39:05;;;;;;;37.03;18.53;;;1.60;99.90;;;;;;5107510;27;20401;-82
2022/12/04 10:41:45;;;;;;;;;;;1.60;99.90;;;;;;5108245;27;20050;-82
2022/12/04 10:44:14;;;;;;;34.07;16.90;;;1.60;99.90;;;;;;5110002;27;20009;-84
2022/12/04 10:46:40;;;;;;;34.67;16.87;;;1.60;99.90;;;;;;5094984;27;20114;-79
2022/12/04 10:49:27;;;;;;;32.27;15.77;;;1.60;99.90;;;;;;5110963;27;20082;-82
2022/12/04 10:51:53;;;;;;;37.03;17.77;;;1.60;99.90;;;;;;5102118;27;20075;-82
2022/12/04 10:54:36;;;;;;;33.23;16.73;;;1.70;99.90;;;;;;5084843;27;20039;-83
2022/12/04 10:57:06;;;;;;;33.30;17.20;;;1.70;99.90;;;;;;5109917;27;20101;-82
2022/12/04 10:59:32;;;;;;;31.47;16.53;;;1.70;99.90;;;;;;5110600;27;20027;-82
2022/12/04 11:02:14;;;;;;;31.17;16.13;;;1.70;99.90;;;;;;5104404;27;20028;-82
2022/12/04 11:04:41;;;;;;;31.60;16.30;;;1.70;99.90;;;;;;5090835;27;20055;-83
2022/12/04 11:07:19;;;;;;;32.53;16.20;;;1.70;99.90;;;;;;5107986;27;20504;-82
2022/12/04 11:10:05;;;;;;;32.53;15.93;;;1.80;99.90;;;;;;5105348;27;20461;-80
2022/12/04 11:12:32;;;;;;;26.37;13.80;;;1.80;99.90;;;;;;5088395;27;20093;-83
2022/12/04 11:15:06;;;;;;;26.87;14.13;;;1.80;99.90;;;;;;5105837;27;20024;-81
2022/12/04 11:17:32;;;;;;;27.60;14.60;;;1.90;99.90;;;;;;5102592;27;20077;-82
2022/12/04 11:19:59;;;;;;;29.33;15.00;;;1.90;99.90;;;;;;5107320;27;20031;-83
2022/12/04 11:22:25;;;;;;;27.23;14.10;;;1.90;99.90;;;;;;5097803;28;20030;-81
2022/12/04 11:24:56;;;;;;;28.40;14.73;;;1.90;99.90;;;;;;5097988;28;20461;-85
2022/12/04 11:27:30;;;;;;;26.57;14.00;;;1.70;99.90;;;;;;5097956;28;20074;-82
2022/12/04 11:29:59;;;;;;;27.47;14.10;;;1.90;99.90;;;;;;5099745;27;20032;-82
2022/12/04 11:32:29;;;;;;;26.20;14.17;;;1.90;99.90;;;;;;5085707;27;20677;-80
2022/12/04 11:35:00;;;;;;;28.07;14.53;;;1.90;99.90;;;;;;5099668;27;20044;-82
2022/12/04 11:37:32;;;;;;;26.90;13.70;;;1.90;99.90;;;;;;5103784;27;20126;-81
2022/12/04 11:39:59;;;;;;;24.70;13.90;;;1.90;99.90;;;;;;5109879;27;20035;-83
2022/12/04 11:42:28;;;;;;;24.93;14.00;;;1.90;99.90;;;;;;5115258;27;20062;-83
2022/12/04 11:44:59;;;;;;;26.60;13.90;;;1.90;99.90;;;;;;5129228;27;20035;-81
2022/12/04 11:47:28;;;;;;;24.17;13.93;;;1.90;99.90;;;;;;5110466;27;20035;-81
2022/12/04 11:50:13;;;;;;;22.60;13.37;;;1.90;99.90;;;;;;5087562;27;20496;-83
2022/12/04 11:53:06;;;;;;;25.30;13.53;;;1.90;99.90;;;;;;5105614;27;20089;-82
2022/12/04 11:55:49;;;;;;;22.63;12.07;;;1.90;99.90;;;;;;5108834;27;20488;-84
2022/12/04 11:58:36;;;;;;;22.85;13.13;;;1.90;99.90;;;;;;5098292;28;20031;-83
2022/12/04 12:01:12;;;;;;;23.80;12.63;;;1.90;99.90;;;;;;5096814;27;20043;-82
2022/12/04 12:04:18;;;;;;;22.23;12.53;;;1.90;99.90;;;;;;5115177;27;20048;-82
2022/12/04 12:07:01;;;;;;;21.83;11.90;;;1.90;99.90;;;;;;5105625;27;20040;-81
2022/12/04 12:10:05;;;;;;;23.70;12.57;;;1.90;99.90;;;;;;5112053;27;20115;-82
2022/12/04 12:13:10;;;;;;;23.17;13.10;;;1.90;99.90;;;;;;5106796;28;20055;-81
2022/12/04 12:15:42;;;;;;;22.30;12.07;;;1.90;99.90;;;;;;5098455;27;20042;-83
2022/12/04 12:18:20;;;;;;;22.20;12.30;;;1.90;99.90;;;;;;5115028;27;20046;-82
2022/12/04 12:21:04;;;;;;;22.30;12.20;;;2.00;99.90;;;;;;5101035;27;20043;-85
2022/12/04 12:23:54;;;;;;;22.37;12.07;;;2.00;99.90;;;;;;5110972;27;20073;-81
2022/12/04 12:26:25;;;;;;;20.53;12.37;;;2.00;99.90;;;;;;5103834;27;20038;-80
2022/12/04 12:29:12;;;;;;;18.83;11.30;;;2.00;99.90;;;;;;5097671;28;20080;-83
2022/12/04 12:31:49;;;;;;;22.40;12.30;;;2.00;99.90;;;;;;5095899;27;20045;-82
2022/12/04 12:34:33;;;;;;;24.43;13.33;;;2.00;99.90;;;;;;5079966;28;20036;-82
2022/12/04 12:37:04;;;;;;;22.87;13.00;;;2.00;99.90;;;;;;5096527;28;20047;-84
2022/12/04 12:39:39;;;;;;;24.40;13.37;;;2.00;99.90;;;;;;5102670;27;20045;-82
2022/12/04 12:42:11;;;;;;;21.77;12.52;;;2.00;99.90;;;;;;5104983;28;20496;-81
2022/12/04 12:44:51;;;;;;;23.80;12.90;;;2.00;99.90;;;;;;5099536;28;20404;-83
2022/12/04 12:47:21;;;;;;;20.43;11.87;;;2.00;99.90;;;;;;5103195;28;20035;-82
2022/12/04 12:49:52;;;;;;;23.13;12.70;;;2.00;99.90;;;;;;5098651;28;20066;-82
2022/12/04 12:52:59;;;;;;;25.08;13.93;;;2.00;99.90;;;;;;5101714;28;20036;-83
2022/12/04 12:55:29;;;;;;;24.10;13.20;;;2.00;99.90;;;;;;5075766;27;20051;-80
2022/12/04 12:58:12;;;;;;;24.10;13.57;;;2.00;99.90;;;;;;5095853;28;20040;-81
2022/12/04 13:00:56;;;;;;;24.50;14.02;;;2.00;99.90;;;;;;5093637;28;20046;-82
2022/12/04 13:03:49;;;;;;;25.30;13.83;;;2.00;99.90;;;;;;5100870;28;20035;-82
2022/12/04 13:06:20;;;;;;;26.67;13.50;;;2.00;99.90;;;;;;5080870;28;20065;-83
2022/12/04 13:09:10;;;;;;;25.63;13.87;;;2.00;99.90;;;;;;5103488;28;20066;-82
2022/12/04 13:11:37;;;;;;;24.47;13.20;;;2.10;99.90;;;;;;5110546;28;20040;-82